createdAt,value
2018-07-26T00:04:36.344Z,2.27
2018-07-26T00:09:40.610Z,2.47
2018-07-26T00:14:44.166Z,2.55
2018-07-26T00:19:48.138Z,2.50
2018-07-26T00:24:52.424Z,2.67
2018-07-26T00:29:56.462Z,2.40
2018-07-26T00:35:02.275Z,2.65
2018-07-26T00:40:06.571Z,2.70
2018-07-26T00:45:10.493Z,2.95
2018-07-26T00:50:15.449Z,2.50
2018-07-26T00:55:19.753Z,2.43
2018-07-26T01:00:23.895Z,2.70
2018-07-26T01:05:28.120Z,2.70
2018-07-26T01:10:32.554Z,3.40
2018-07-26T01:15:36.665Z,2.67
2018-07-26T01:20:40.755Z,2.72
2018-07-26T01:25:44.578Z,2.70
2018-07-26T01:30:48.208Z,2.95
2018-07-26T01:35:52.478Z,2.83
2018-07-26T01:40:56.442Z,2.60
2018-07-26T01:46:00.327Z,2.80
2018-07-26T01:51:04.130Z,2.92
2018-07-26T01:56:09.129Z,2.90
2018-07-26T02:01:14.010Z,2.60
2018-07-26T02:06:18.035Z,2.50
2018-07-26T02:11:21.918Z,2.52
2018-07-26T02:16:26.269Z,2.90
2018-07-26T02:21:29.950Z,3.20
2018-07-26T02:26:34.105Z,3.02
2018-07-26T02:31:38.023Z,2.60
2018-07-26T02:36:42.073Z,2.75
2018-07-26T02:41:45.965Z,3.00
2018-07-26T02:46:49.850Z,2.95
2018-07-26T02:51:54.054Z,3.22
2018-07-26T02:56:58.057Z,3.02
2018-07-26T03:02:02.186Z,3.00
2018-07-26T03:07:06.165Z,3.08
2018-07-26T03:12:10.195Z,3.08
2018-07-26T03:17:15.343Z,3.15
2018-07-26T03:22:19.957Z,2.90
2018-07-26T03:27:23.825Z,3.27
2018-07-26T03:32:28.442Z,3.55
2018-07-26T03:37:32.111Z,2.92
2018-07-26T03:42:36.410Z,3.27
2018-07-26T03:47:41.356Z,3.65
2018-07-26T03:52:45.885Z,3.35
2018-07-26T03:57:50.225Z,2.87
2018-07-26T04:02:54.551Z,2.98
2018-07-26T04:07:59.373Z,3.62
2018-07-26T04:13:03.820Z,4.08
2018-07-26T04:18:08.052Z,3.42
2018-07-26T04:23:12.414Z,3.42
2018-07-26T04:28:16.782Z,3.75
2018-07-26T04:33:20.922Z,3.52
2018-07-26T04:38:25.042Z,3.20
2018-07-26T04:43:29.653Z,3.62
2018-07-26T04:48:34.080Z,3.47
2018-07-26T04:53:38.288Z,3.60
2018-07-26T05:15:08.043Z,5.05
2018-07-26T05:20:12.222Z,4.40
2018-07-26T05:25:16.561Z,3.75
2018-07-26T05:30:20.958Z,4.23
2018-07-26T05:35:25.310Z,3.70
2018-07-26T05:40:29.587Z,3.97
2018-07-26T05:45:34.026Z,3.70
2018-07-26T05:50:39.948Z,3.62
2018-07-26T05:55:44.358Z,5.40
2018-07-26T06:00:48.587Z,4.72
2018-07-26T06:05:53.131Z,4.60
2018-07-26T06:10:57.268Z,3.87
2018-07-26T06:16:01.504Z,6.60
2018-07-26T06:21:05.645Z,3.62
2018-07-26T06:26:09.716Z,3.83
2018-07-26T06:31:13.949Z,3.55
2018-07-26T06:36:18.723Z,3.50
2018-07-26T06:41:23.262Z,3.12
2018-07-26T06:46:27.614Z,3.70
2018-07-26T06:51:31.828Z,3.35
2018-07-26T06:56:36.014Z,3.27
2018-07-26T07:01:40.592Z,3.58
2018-07-26T07:06:44.884Z,2.80
2018-07-26T07:11:49.083Z,2.87
2018-07-26T07:16:54.509Z,3.00
2018-07-26T07:21:58.734Z,2.80
2018-07-26T07:27:03.106Z,2.87
2018-07-26T07:32:07.588Z,2.60
2018-07-26T07:37:11.938Z,3.08
2018-07-26T07:42:16.261Z,2.77
2018-07-26T07:47:20.713Z,2.67
2018-07-26T07:52:25.844Z,2.45
2018-07-26T07:57:30.267Z,2.75
2018-07-26T08:02:34.476Z,2.70
2018-07-26T08:07:38.698Z,2.60
2018-07-26T08:12:52.330Z,2.50
2018-07-26T08:17:56.825Z,2.87
2018-07-26T08:23:01.111Z,2.70
2018-07-26T08:28:07.630Z,2.85
2018-07-26T08:49:36.057Z,2.67
2018-07-26T08:54:40.503Z,2.62
2018-07-26T08:59:44.999Z,3.10
2018-07-26T09:04:49.420Z,2.35
2018-07-26T09:09:54.841Z,2.80
2018-07-26T09:35:19.162Z,2.65
2018-07-26T09:40:23.511Z,2.75
2018-07-26T09:45:27.867Z,2.92
2018-07-26T09:50:32.288Z,2.60
2018-07-26T09:55:36.630Z,2.65
2018-07-26T10:00:45.775Z,2.37
2018-07-26T10:05:50.111Z,2.22
2018-07-26T10:10:55.302Z,3.05
2018-07-26T10:15:59.330Z,2.70
2018-07-26T10:21:03.630Z,2.42
2018-07-26T10:26:07.685Z,2.30
2018-07-26T10:31:12.250Z,2.12
2018-07-26T10:36:16.246Z,2.20
2018-07-26T10:41:20.231Z,2.08
2018-07-26T10:46:24.754Z,2.05
2018-07-26T10:51:29.828Z,2.02
2018-07-26T10:56:34.099Z,2.45
2018-07-26T11:01:38.050Z,2.37
2018-07-26T11:06:42.096Z,2.27
2018-07-26T11:11:46.432Z,2.40
2018-07-26T11:16:50.359Z,2.02
2018-07-26T11:21:54.532Z,2.35
2018-07-26T11:26:58.643Z,2.37
2018-07-26T11:32:02.755Z,2.42
2018-07-26T11:37:07.679Z,2.52
2018-07-26T11:42:12.679Z,2.40
2018-07-26T11:47:16.820Z,2.30
2018-07-26T11:52:21.261Z,2.30
2018-07-26T11:57:25.844Z,2.67
2018-07-26T12:02:30.474Z,2.87
2018-07-26T12:07:34.987Z,2.25
2018-07-26T12:12:39.257Z,1.82
2018-07-26T12:17:43.503Z,1.82
2018-07-26T12:22:47.698Z,1.70
2018-07-26T12:27:51.969Z,2.10
2018-07-26T12:32:57.073Z,1.87
2018-07-26T12:38:01.178Z,3.02
2018-07-26T12:43:05.447Z,2.20
2018-07-26T12:48:09.856Z,1.80
2018-07-26T12:53:14.047Z,1.92
2018-07-26T12:58:18.079Z,1.93
2018-07-26T13:03:21.891Z,2.00
2018-07-26T13:08:26.118Z,2.00
2018-07-26T13:13:30.320Z,2.05
2018-07-26T13:18:34.619Z,1.85
2018-07-26T13:23:38.961Z,2.60
2018-07-26T13:28:43.158Z,2.27
2018-07-26T13:33:51.256Z,2.15
2018-07-26T13:38:55.807Z,2.05
2018-07-26T13:44:00.417Z,2.10
2018-07-26T13:49:04.584Z,2.05
2018-07-26T13:54:08.386Z,2.12
2018-07-26T13:59:12.325Z,2.40
2018-07-26T14:04:16.156Z,2.67
2018-07-26T14:09:20.532Z,2.37
2018-07-26T14:14:24.831Z,2.40
2018-07-26T14:19:28.995Z,1.80
2018-07-26T14:24:32.979Z,2.33
2018-07-26T14:29:37.175Z,2.10
2018-07-26T14:34:41.569Z,2.70
2018-07-26T14:39:46.798Z,3.12
2018-07-26T14:44:51.477Z,2.45
2018-07-26T14:49:55.819Z,2.58
2018-07-26T14:55:05.037Z,3.72
2018-07-26T15:00:09.266Z,2.95
2018-07-26T15:05:13.466Z,2.90
2018-07-26T15:10:17.382Z,4.47
2018-07-26T15:15:23.264Z,3.70
2018-07-26T15:20:27.420Z,6.40
2018-07-26T15:25:32.652Z,3.22
2018-07-26T15:30:36.418Z,3.12
2018-07-26T15:40:50.916Z,3.40
2018-07-26T15:45:55.161Z,3.80
2018-07-26T15:51:00.397Z,3.67
2018-07-26T15:56:04.067Z,3.30
2018-07-26T16:01:08.263Z,3.30
2018-07-26T16:06:13.041Z,3.33
2018-07-26T16:11:16.958Z,3.35
2018-07-26T16:16:20.962Z,3.62
2018-07-26T16:37:47.898Z,2.92
2018-07-26T16:42:52.055Z,4.33
2018-07-26T16:47:56.266Z,3.08
2018-07-26T16:53:00.419Z,3.30
2018-07-26T16:58:05.682Z,3.37
2018-07-26T17:03:09.846Z,3.30
2018-07-26T17:08:14.938Z,2.80
2018-07-26T17:13:19.130Z,3.50
2018-07-26T17:18:23.542Z,2.58
2018-07-26T17:23:28.193Z,3.02
2018-07-26T17:28:32.731Z,3.35
2018-07-26T17:33:37.195Z,3.20
2018-07-26T17:38:42.676Z,2.95
2018-07-26T17:43:47.957Z,2.92
2018-07-26T17:48:52.575Z,3.05
2018-07-26T17:53:56.861Z,3.02
2018-07-26T17:59:00.841Z,2.83
2018-07-26T18:04:05.599Z,2.87
2018-07-26T18:09:10.349Z,3.40
2018-07-26T18:14:14.657Z,3.35
2018-07-26T18:19:19.197Z,3.12
2018-07-26T18:24:24.002Z,3.35
2018-07-26T18:29:28.642Z,3.27
2018-07-26T18:34:33.560Z,3.42
2018-07-26T18:39:38.195Z,3.52
2018-07-26T18:44:43.389Z,3.42
2018-07-26T18:49:47.836Z,3.10
2018-07-26T18:54:52.224Z,3.90
2018-07-26T18:59:56.616Z,3.00
2018-07-26T19:28:33.276Z,6.70
2018-07-26T19:33:37.130Z,3.45
2018-07-26T19:38:41.301Z,3.10
2018-07-26T19:43:45.806Z,3.33
2018-07-26T19:48:50.220Z,3.50
2018-07-26T19:53:56.530Z,3.50
2018-07-26T19:59:01.170Z,3.58
2018-07-26T20:04:05.511Z,3.45
2018-07-26T20:09:10.409Z,3.62
2018-07-26T20:14:13.946Z,3.90
2018-07-26T20:19:17.763Z,3.75
2018-07-26T20:24:21.391Z,3.70
2018-07-26T20:29:25.601Z,3.90
2018-07-26T20:34:30.669Z,4.00
2018-07-26T20:39:34.843Z,3.92
2018-07-26T20:44:38.727Z,4.08
2018-07-26T20:49:43.398Z,4.20
2018-07-26T20:54:47.550Z,4.47
2018-07-26T20:59:51.777Z,4.00
2018-07-26T21:04:56.102Z,3.80
2018-07-26T21:15:11.349Z,3.98
2018-07-26T21:20:15.733Z,4.30
2018-07-26T21:25:19.675Z,4.13
2018-07-26T21:30:24.073Z,3.97
2018-07-26T21:35:28.574Z,4.37
2018-07-26T21:40:32.494Z,4.95
2018-07-26T21:45:37.206Z,4.72
2018-07-26T21:50:41.894Z,4.37
2018-07-26T21:55:45.648Z,4.15
2018-07-26T22:00:54.457Z,4.50
2018-07-26T22:05:59.364Z,4.70
2018-07-26T22:11:03.333Z,4.95
2018-07-26T22:16:07.405Z,4.65
2018-07-26T22:21:11.176Z,4.60
2018-07-26T22:26:15.314Z,4.20
2018-07-26T22:31:19.271Z,4.90
2018-07-26T22:36:23.813Z,5.12
2018-07-26T22:41:28.334Z,4.35
2018-07-26T22:46:32.415Z,4.45
2018-07-26T22:51:36.342Z,4.58
2018-07-26T22:56:40.531Z,4.45
2018-07-26T23:01:44.662Z,4.92
2018-07-26T23:06:48.661Z,4.55
2018-07-26T23:11:52.623Z,4.92
2018-07-26T23:16:56.463Z,4.95
2018-07-26T23:22:00.427Z,4.85
2018-07-26T23:27:04.431Z,4.58
2018-07-26T23:32:08.174Z,4.62
2018-07-26T23:37:12.012Z,4.72
2018-07-26T23:42:16.062Z,4.45
2018-07-26T23:47:19.654Z,5.10
2018-07-26T23:52:23.698Z,4.90
2018-07-26T23:57:27.720Z,4.95
